Evadale, TX

11:39 AM CDT on August 22, 2014 (GMT -0500)
Southeast Texas Regional | Change Station
CLOSE
Current Station
Airport
Location: Beaumont,
Elevation: 13 ft
Nearby Weather Stations

Elev 13 ft 29.95 °N, 94.02 °W | Updated 46 minutes ago

Scattered Clouds
Scattered Clouds
89 °F
Feels Like 99 °F
N
5
Wind Variable Wind from SW

Today
High -- | Low -- °F
--% Chance of Precip.
Yesterday
High -- | Low -- °F
Precip. -- in
6:47 AM 7:50 PM
Waning Crescent, 7% visible
Pressure 30.10 in
Visibility 10.0 miles
Clouds Scattered Clouds 2600 ft
Heat Index 99 °F
Dew Point 75 °F
Humidity 63%
Rainfall 0.00 in
Snow Depth Not available.
UV 6 out of 12
Pollen 5.70 out of 12
Air Quality Not available.
Flu Activity Not available.
METAR KBPT 221553Z 22004KT 10SM SCT026 32/24 A3010 RMK AO2 SLP192 T03170239

More Conditions Fewer Conditions

Pressure 30.10 in
Visibility 10.0 miles
Clouds Scattered Clouds 2600 ft
Heat Index 99 °F
Dew Point 75 °F
Humidity 63%
Rainfall 0.00 in
Snow Depth Not available.
UV 6 out of 12
Pollen 5.70 out of 12
Air Quality Not available.
Flu Activity Not available.
METAR KBPT 221553Z 22004KT 10SM SCT026 32/24 A3010 RMK AO2 SLP192 T03170239

More Conditions Fewer Conditions

10-Day Weather Forecast

Almanac

Astronomy

Aug. 22, 2014 Rise Set
Actual Time 6:47 AM CDT 7:50 PM CDT
Civil Twilight 6:22 AM CDT 8:15 PM CDT
Nautical Twilight 5:52 AM CDT 8:44 PM CDT
Astronomical Twilight 5:22 AM CDT 9:15 PM CDT
Moon 4:15 AM CDT 5:55 PM CDT
Length of Visible Light 13h 52m
Length of Day
13h 03m
Tomorrow will be 1m 40s shorter.
Waning Crescent, 7% of the Moon is Illuminated
Today
Waning Crescent
Aug 25
New
Sep 2
First Quarter
Sep 8
Full
Sep 15
Last Quarter

Today's Extremes

State Highs State Lows

Community

WunderPhotos

Upload Photos

1,746,195 photos uploaded!

Nearby

Snow Depth

Station Depth Elevation
No new snow has been reported.

Earthquake Activity

City Distance Mag. Time & Date
No recent earthquake activity has been reported nearby.
Minimum magnitude displayed is 2.5.

Coastal Water Temperatures

Place Temperature
Sabine Pass North, TX 87.1 °F
Port Arthur, TX 88.0 °F
Calcasieu Pass, LA 87.1 °F
Rollover Pass, TX 84.9 °F
Galveston Bay (North Jetty), TX 86.0 °F

Nearby Weather Stations